createdAt,value
2022-11-20T00:01:15.328Z,100054.41
2022-11-20T00:03:43.071Z,100048.28
2022-11-20T00:06:15.028Z,100054.72
2022-11-20T00:08:45.548Z,100067.13
2022-11-20T00:11:21.822Z,100062.03
2022-11-20T00:13:52.432Z,100069.31
2022-11-20T00:16:23.287Z,100062.25
2022-11-20T00:18:51.501Z,100063.81
2022-11-20T00:21:27.385Z,100062.88
2022-11-20T00:23:56.691Z,100052.28
2022-11-20T00:26:25.920Z,100054.81
2022-11-20T00:29:02.056Z,100054.91
2022-11-20T00:31:30.733Z,100070.75
2022-11-20T00:33:58.339Z,100076.16
2022-11-20T00:36:28.356Z,100067.28
2022-11-20T00:38:58.246Z,100081.47
2022-11-20T00:41:27.519Z,100089.38
2022-11-20T00:43:56.183Z,100073.59
2022-11-20T00:46:26.521Z,100072.03
2022-11-20T00:48:54.263Z,100084.81
2022-11-20T00:51:23.768Z,100092.66
2022-11-20T00:53:51.533Z,100094.69
2022-11-20T00:56:20.388Z,100081.47
2022-11-20T00:58:49.359Z,100076.13
2022-11-20T01:01:22.367Z,100086.69
2022-11-20T01:03:51.805Z,100086.63
2022-11-20T01:06:24.720Z,100094.59
2022-11-20T01:08:54.760Z,100088.59
2022-11-20T01:11:24.777Z,100083.38
2022-11-20T01:13:53.711Z,100097.53
2022-11-20T01:16:24.099Z,100092.22
2022-11-20T01:18:53.300Z,100094.91
2022-11-20T01:21:29.754Z,100083.00
2022-11-20T01:23:57.933Z,100094.66
2022-11-20T01:26:28.424Z,100085.13
2022-11-20T01:28:57.120Z,100083.22
2022-11-20T01:31:27.754Z,100073.53
2022-11-20T01:33:57.511Z,100089.38
2022-11-20T01:36:27.350Z,100089.84
2022-11-20T01:38:56.516Z,100081.03
2022-11-20T01:41:44.102Z,100092.63
2022-11-20T01:44:15.951Z,100101.50
2022-11-20T01:47:03.388Z,100104.19
2022-11-20T01:49:38.174Z,100087.66
2022-11-20T01:52:25.768Z,100108.03
2022-11-20T01:54:58.053Z,100095.56
2022-11-20T01:57:28.939Z,100102.03
2022-11-20T02:00:06.383Z,100103.72
2022-11-20T02:02:43.493Z,100095.09
2022-11-20T02:05:28.320Z,100099.44
2022-11-20T02:07:58.834Z,100102.25
2022-11-20T02:10:28.216Z,100096.03
2022-11-20T02:13:14.141Z,100084.63
2022-11-20T02:15:41.942Z,100082.94
2022-11-20T02:18:11.029Z,100095.25
2022-11-20T02:20:41.198Z,100097.81
2022-11-20T02:23:40.454Z,100098.75
2022-11-20T02:26:11.703Z,100103.38
2022-11-20T02:28:39.224Z,100092.69
2022-11-20T02:31:06.593Z,100085.78
2022-11-20T02:33:34.012Z,100095.84
2022-11-20T02:36:01.625Z,100081.63
2022-11-20T02:38:29.176Z,100081.53
2022-11-20T02:40:56.516Z,100091.09
2022-11-20T02:43:24.464Z,100102.75
2022-11-20T02:45:51.848Z,100106.28
2022-11-20T02:48:19.210Z,100100.19
2022-11-20T02:50:46.558Z,100096.69
2022-11-20T02:53:13.976Z,100098.66
2022-11-20T02:55:41.412Z,100104.91
2022-11-20T02:58:08.801Z,100095.94
2022-11-20T03:00:36.621Z,100095.84
2022-11-20T03:03:04.019Z,100102.00
2022-11-20T03:05:31.410Z,100101.03
2022-11-20T03:07:58.747Z,100096.25
2022-11-20T03:10:26.255Z,100104.09
2022-11-20T03:12:56.944Z,100103.25
2022-11-20T03:15:24.893Z,100105.84
2022-11-20T03:17:56.517Z,100097.88
2022-11-20T03:20:24.377Z,100098.66
2022-11-20T03:22:51.903Z,100102.09
2022-11-20T03:25:19.319Z,100089.69
2022-11-20T03:27:46.723Z,100111.94
2022-11-20T03:30:15.000Z,100117.13
2022-11-20T03:32:43.051Z,100097.50
2022-11-20T03:35:10.812Z,100093.00
2022-11-20T03:37:38.281Z,100109.00
2022-11-20T03:40:06.627Z,100109.09
2022-11-20T03:42:46.082Z,100105.91
2022-11-20T03:45:15.309Z,100102.97
2022-11-20T03:47:43.560Z,100116.38
2022-11-20T03:50:14.054Z,100120.13
2022-11-20T03:52:42.273Z,100118.84
2022-11-20T03:55:10.605Z,100124.28
2022-11-20T03:57:38.134Z,100128.47
2022-11-20T04:00:06.953Z,100136.38
2022-11-20T04:02:34.356Z,100128.53
2022-11-20T04:05:20.232Z,100139.75
2022-11-20T04:07:47.567Z,100143.75
2022-11-20T04:10:14.968Z,100147.19
2022-11-20T04:12:42.332Z,100162.94
2022-11-20T04:15:10.432Z,100161.19
2022-11-20T04:17:38.053Z,100159.13
2022-11-20T04:20:06.061Z,100148.44
2022-11-20T04:22:33.569Z,100149.25
2022-11-20T04:25:01.001Z,100147.66
2022-11-20T04:27:28.407Z,100152.09
2022-11-20T04:29:55.830Z,100152.81
2022-11-20T04:32:23.226Z,100151.78
2022-11-20T04:34:50.575Z,100145.69
2022-11-20T04:37:18.012Z,100152.97
2022-11-20T04:39:45.484Z,100141.44
2022-11-20T04:42:31.286Z,100146.84
2022-11-20T04:44:59.108Z,100150.50
2022-11-20T04:47:26.681Z,100156.00
2022-11-20T04:49:54.294Z,100152.88
2022-11-20T04:52:21.775Z,100146.00
2022-11-20T04:54:49.217Z,100154.78
2022-11-20T04:57:16.593Z,100155.47
2022-11-20T04:59:44.001Z,100147.44
2022-11-20T05:02:12.052Z,100153.81
2022-11-20T05:04:39.446Z,100163.69
2022-11-20T05:07:06.878Z,100142.56
2022-11-20T05:09:34.472Z,100155.69
2022-11-20T05:12:01.889Z,100156.69
2022-11-20T05:14:29.301Z,100168.38
2022-11-20T05:16:56.786Z,100177.22
2022-11-20T05:19:24.228Z,100168.69
2022-11-20T05:21:51.756Z,100170.47
2022-11-20T05:24:19.153Z,100181.75
2022-11-20T05:26:46.538Z,100172.16
2022-11-20T05:29:14.233Z,100181.09
2022-11-20T05:31:41.983Z,100169.63
2022-11-20T05:34:09.595Z,100171.66
2022-11-20T05:36:37.009Z,100189.81
2022-11-20T05:39:04.833Z,100189.66
2022-11-20T05:41:34.399Z,100196.16
2022-11-20T05:44:01.803Z,100188.38
2022-11-20T05:46:29.771Z,100199.03
2022-11-20T05:48:58.491Z,100207.16
2022-11-20T05:51:26.849Z,100207.69
2022-11-20T05:53:54.356Z,100204.47
2022-11-20T05:56:23.133Z,100213.13
2022-11-20T05:58:50.871Z,100207.75
2022-11-20T06:01:22.475Z,100206.00
2022-11-20T06:03:51.899Z,100222.75
2022-11-20T06:06:20.924Z,100214.19
2022-11-20T06:08:48.747Z,100219.47
2022-11-20T06:11:17.220Z,100229.31
2022-11-20T06:13:45.043Z,100214.31
2022-11-20T06:16:15.346Z,100220.28
2022-11-20T06:18:42.964Z,100235.31
2022-11-20T06:21:18.984Z,100235.72
2022-11-20T06:23:47.515Z,100246.63
2022-11-20T06:26:20.973Z,100229.78
2022-11-20T06:28:48.650Z,100241.75
2022-11-20T06:31:19.322Z,100237.19
2022-11-20T06:33:46.979Z,100249.50
2022-11-20T06:36:16.143Z,100255.69
2022-11-20T06:38:44.314Z,100255.81
2022-11-20T06:41:14.689Z,100253.81
2022-11-20T06:43:42.183Z,100244.16
2022-11-20T06:46:11.871Z,100254.75
2022-11-20T06:48:39.926Z,100246.88
2022-11-20T06:51:10.451Z,100263.53
2022-11-20T06:53:38.712Z,100258.28
2022-11-20T06:56:07.344Z,100260.16
2022-11-20T06:58:36.479Z,100260.16
2022-11-20T07:01:07.474Z,100268.16
2022-11-20T07:03:35.588Z,100284.78
2022-11-20T07:06:03.631Z,100285.75
2022-11-20T07:08:31.484Z,100278.63
2022-11-20T07:11:00.916Z,100290.81
2022-11-20T07:13:29.481Z,100294.50
2022-11-20T07:16:01.526Z,100298.81
2022-11-20T07:18:28.991Z,100301.53
2022-11-20T07:20:56.485Z,100298.81
2022-11-20T07:23:23.877Z,100306.78
2022-11-20T07:25:51.199Z,100300.56
2022-11-20T07:28:18.598Z,100304.16
2022-11-20T07:30:54.043Z,100311.06
2022-11-20T07:33:21.707Z,100315.34
2022-11-20T07:35:50.312Z,100313.44
2022-11-20T07:38:17.979Z,100302.88
2022-11-20T07:40:45.491Z,100298.34
2022-11-20T07:43:12.972Z,100312.97
2022-11-20T07:45:40.844Z,100307.63
2022-11-20T07:48:08.238Z,100302.22
2022-11-20T07:50:35.579Z,100312.47
2022-11-20T07:53:05.220Z,100314.03
2022-11-20T07:55:33.391Z,100306.75
2022-11-20T07:58:00.912Z,100310.13
2022-11-20T08:00:28.647Z,100309.91
2022-11-20T08:02:56.082Z,100321.06
2022-11-20T08:05:23.659Z,100326.22
2022-11-20T08:07:51.028Z,100317.44
2022-11-20T08:10:18.673Z,100304.03
2022-11-20T08:13:09.549Z,100314.25
2022-11-20T08:15:38.219Z,100320.19
2022-11-20T08:21:17.775Z,100326.88
2022-11-20T08:23:45.087Z,100328.66
2022-11-20T08:26:12.517Z,100330.00
2022-11-20T08:28:39.835Z,100333.41
2022-11-20T08:31:07.432Z,100330.53
2022-11-20T08:33:34.755Z,100329.63
2022-11-20T08:36:04.646Z,100328.50
2022-11-20T08:38:32.818Z,100322.13
2022-11-20T08:41:20.183Z,100332.25
2022-11-20T08:43:47.572Z,100331.97
2022-11-20T08:46:15.333Z,100338.44
2022-11-20T08:48:42.887Z,100330.09
2022-11-20T08:51:11.164Z,100343.28
2022-11-20T08:53:39.612Z,100337.69
2022-11-20T08:56:07.403Z,100346.19
2022-11-20T08:58:54.952Z,100350.56
2022-11-20T09:01:24.245Z,100354.72
2022-11-20T09:03:51.796Z,100351.75
2022-11-20T09:06:19.452Z,100346.91
2022-11-20T09:08:46.882Z,100347.28
2022-11-20T09:11:14.275Z,100351.47
2022-11-20T09:13:41.667Z,100349.56
2022-11-20T09:16:10.392Z,100356.47
2022-11-20T09:18:38.423Z,100350.00
2022-11-20T09:21:09.888Z,100360.63
2022-11-20T09:23:38.557Z,100355.09
2022-11-20T09:26:09.916Z,100360.13
2022-11-20T09:28:37.396Z,100359.06
2022-11-20T09:31:09.616Z,100361.31
2022-11-20T09:33:37.295Z,100365.50
2022-11-20T09:36:11.689Z,100364.50
2022-11-20T09:38:39.099Z,100352.19
2022-11-20T09:41:07.738Z,100372.22
2022-11-20T09:43:39.855Z,100361.44
2022-11-20T09:46:18.350Z,100369.31
2022-11-20T09:49:03.171Z,100360.13
2022-11-20T09:52:07.287Z,100360.53
2022-11-20T09:54:38.560Z,100351.91
2022-11-20T09:57:26.487Z,100350.03
2022-11-20T10:00:00.184Z,100345.09
2022-11-20T10:02:40.837Z,100342.38
2022-11-20T10:05:20.607Z,100348.97
2022-11-20T10:08:07.459Z,100336.47
2022-11-20T10:10:43.502Z,100344.78
2022-11-20T10:13:44.608Z,100335.03
2022-11-20T10:16:15.439Z,100335.53
2022-11-20T10:18:52.309Z,100333.88
2022-11-20T10:21:50.051Z,100332.81
2022-11-20T10:24:35.959Z,100328.22
2022-11-20T10:27:25.136Z,100327.53
2022-11-20T10:30:09.064Z,100340.41
2022-11-20T10:32:40.345Z,100336.06
2022-11-20T10:35:21.215Z,100334.25
2022-11-20T10:38:03.858Z,100344.22
2022-11-20T10:40:40.998Z,100329.50
2022-11-20T10:43:14.242Z,100343.13
2022-11-20T10:45:50.688Z,100332.19
2022-11-20T10:48:23.917Z,100327.91
2022-11-20T10:51:04.150Z,100322.44
2022-11-20T10:54:05.227Z,100321.63
2022-11-20T10:56:40.911Z,100311.81
2022-11-20T10:59:34.586Z,100313.84
2022-11-20T11:02:03.449Z,100305.13
2022-11-20T11:04:39.910Z,100308.19
2022-11-20T11:07:18.932Z,100308.13
2022-11-20T11:09:56.944Z,100315.50
2022-11-20T11:12:29.840Z,100311.53
2022-11-20T11:14:58.671Z,100303.69
2022-11-20T11:17:31.622Z,100300.47
2022-11-20T11:20:03.866Z,100308.97
2022-11-20T11:22:33.923Z,100296.03
2022-11-20T11:25:01.868Z,100295.28
2022-11-20T11:27:29.213Z,100294.56
2022-11-20T11:30:12.962Z,100291.50
2022-11-20T11:32:40.320Z,100294.28
2022-11-20T11:35:24.605Z,100283.91
2022-11-20T11:37:55.122Z,100293.97
2022-11-20T11:40:24.680Z,100284.78
2022-11-20T11:42:59.064Z,100288.69
2022-11-20T11:45:26.860Z,100284.88
2022-11-20T11:47:57.766Z,100280.69
2022-11-20T11:50:30.319Z,100274.94
2022-11-20T11:53:20.828Z,100282.97
2022-11-20T11:56:09.811Z,100276.44
2022-11-20T11:58:47.812Z,100268.72
2022-11-20T12:01:34.363Z,100273.25
2022-11-20T12:04:20.532Z,100269.44
2022-11-20T12:10:35.826Z,100268.66
2022-11-20T12:13:22.146Z,100272.38
2022-11-20T12:15:50.211Z,100269.69
2022-11-20T12:18:21.129Z,100260.56
2022-11-20T12:21:25.979Z,100263.41
2022-11-20T12:24:12.489Z,100254.41
2022-11-20T12:26:58.292Z,100253.59
2022-11-20T12:29:34.494Z,100248.78
2022-11-20T12:32:16.788Z,100257.09
2022-11-20T12:34:48.660Z,100245.94
2022-11-20T12:37:19.239Z,100258.69
2022-11-20T12:39:53.536Z,100239.91
2022-11-20T12:43:03.769Z,100244.72
2022-11-20T12:45:52.082Z,100244.38
2022-11-20T12:48:44.978Z,100249.66
2022-11-20T12:51:40.882Z,100246.34
2022-11-20T12:54:53.945Z,100239.97
2022-11-20T12:57:46.031Z,100233.84
2022-11-20T13:00:16.274Z,100241.84
2022-11-20T13:03:09.061Z,100240.78
2022-11-20T13:05:52.000Z,100247.94
2022-11-20T13:08:37.053Z,100244.25
2022-11-20T13:11:13.698Z,100241.31
2022-11-20T13:14:04.836Z,100251.69
2022-11-20T13:16:45.940Z,100242.88
2022-11-20T13:19:16.149Z,100239.66
2022-11-20T13:21:50.550Z,100223.56
2022-11-20T13:24:24.675Z,100234.16
2022-11-20T13:27:14.978Z,100233.53
2022-11-20T13:29:46.027Z,100234.03
2022-11-20T13:32:18.756Z,100229.22
2022-11-20T13:34:57.554Z,100222.34
2022-11-20T13:37:36.970Z,100218.34
2022-11-20T13:40:13.313Z,100218.34
2022-11-20T13:42:43.663Z,100212.19
2022-11-20T13:45:29.296Z,100204.56
2022-11-20T13:47:58.012Z,100204.84
2022-11-20T13:50:47.205Z,100211.97
2022-11-20T13:53:33.218Z,100218.13
2022-11-20T13:56:07.658Z,100218.19
2022-11-20T13:59:05.289Z,100217.97
2022-11-20T14:01:33.845Z,100217.88
2022-11-20T14:04:16.223Z,100222.72
2022-11-20T14:06:45.867Z,100220.97
2022-11-20T14:09:25.818Z,100228.50
2022-11-20T14:11:53.393Z,100221.56
2022-11-20T14:14:23.765Z,100223.50
2022-11-20T14:16:52.368Z,100233.22
2022-11-20T14:19:22.723Z,100227.25
2022-11-20T14:21:53.065Z,100217.72
2022-11-20T14:24:23.522Z,100220.31
2022-11-20T14:26:52.910Z,100220.41
2022-11-20T14:29:24.872Z,100221.31
2022-11-20T14:31:55.209Z,100214.34
2022-11-20T14:34:26.103Z,100209.34
2022-11-20T14:37:00.743Z,100207.00
2022-11-20T14:39:41.685Z,100218.59
2022-11-20T14:42:18.003Z,100217.66
2022-11-20T14:44:46.462Z,100217.06
2022-11-20T14:47:16.776Z,100221.56
2022-11-20T14:49:44.684Z,100221.63
2022-11-20T14:52:21.424Z,100213.75
2022-11-20T14:54:51.419Z,100213.13
2022-11-20T14:57:36.484Z,100222.97
2022-11-20T15:00:24.409Z,100225.59
2022-11-20T15:02:53.200Z,100218.00
2022-11-20T15:05:23.561Z,100220.72
2022-11-20T15:08:08.165Z,100221.81
2022-11-20T15:10:35.995Z,100226.28
2022-11-20T15:13:13.697Z,100226.41
2022-11-20T15:15:49.084Z,100222.16
2022-11-20T15:18:23.500Z,100226.75
2022-11-20T15:20:52.281Z,100232.09
2022-11-20T15:23:20.557Z,100233.25
2022-11-20T15:25:49.409Z,100229.84
2022-11-20T15:28:26.523Z,100234.28
2022-11-20T15:30:53.945Z,100241.69
2022-11-20T15:33:21.294Z,100238.31
2022-11-20T15:35:48.829Z,100236.81
2022-11-20T15:38:16.359Z,100229.84
2022-11-20T15:40:43.975Z,100235.13
2022-11-20T15:43:13.555Z,100250.41
2022-11-20T15:45:52.939Z,100246.00
2022-11-20T15:48:22.970Z,100249.06
2022-11-20T15:51:01.812Z,100249.75
2022-11-20T15:53:29.361Z,100249.16
2022-11-20T15:55:56.809Z,100249.22
2022-11-20T15:58:25.242Z,100244.19
2022-11-20T16:00:52.656Z,100257.44
2022-11-20T16:03:20.516Z,100256.69
2022-11-20T16:05:47.955Z,100255.22
2022-11-20T16:08:15.696Z,100268.72
2022-11-20T16:10:43.259Z,100265.59
2022-11-20T16:13:37.368Z,100263.34
2022-11-20T16:16:09.228Z,100276.94
2022-11-20T16:18:36.520Z,100278.78
2022-11-20T16:21:04.260Z,100280.75
2022-11-20T16:23:31.908Z,100285.09
2022-11-20T16:25:59.245Z,100277.97
2022-11-20T16:28:26.674Z,100293.06
2022-11-20T16:30:54.085Z,100287.34
2022-11-20T16:33:21.481Z,100292.72
2022-11-20T16:35:48.797Z,100292.25
2022-11-20T16:38:16.164Z,100294.00
2022-11-20T16:40:43.607Z,100299.41
2022-11-20T16:43:14.674Z,100310.69
2022-11-20T16:45:44.051Z,100300.28
2022-11-20T16:48:16.749Z,100302.25
2022-11-20T16:50:52.608Z,100308.13
2022-11-20T16:53:21.995Z,100303.53
2022-11-20T16:55:49.607Z,100301.84
2022-11-20T16:58:17.040Z,100305.91
2022-11-20T17:00:51.217Z,100302.66
2022-11-20T17:03:19.216Z,100308.13
2022-11-20T17:05:46.850Z,100296.06
2022-11-20T17:08:14.284Z,100303.13
2022-11-20T17:10:42.638Z,100305.78
2022-11-20T17:13:10.178Z,100310.19
2022-11-20T17:15:37.550Z,100318.19
2022-11-20T17:18:05.195Z,100309.63
2022-11-20T17:20:32.556Z,100317.88
2022-11-20T17:23:00.000Z,100318.50
2022-11-20T17:25:27.473Z,100312.38
2022-11-20T17:27:54.974Z,100310.41
2022-11-20T17:30:22.371Z,100304.88
2022-11-20T17:32:49.809Z,100303.97
2022-11-20T17:35:17.245Z,100313.97
2022-11-20T17:37:44.615Z,100322.88
2022-11-20T17:40:12.043Z,100309.94
2022-11-20T17:42:39.472Z,100305.28
2022-11-20T17:45:07.138Z,100315.22
2022-11-20T17:47:37.021Z,100308.88
2022-11-20T17:50:05.248Z,100308.16
2022-11-20T17:52:32.660Z,100306.13
2022-11-20T17:55:00.102Z,100302.59
2022-11-20T17:57:45.976Z,100315.78
2022-11-20T18:00:16.527Z,100309.03
2022-11-20T18:02:43.896Z,100313.84
2022-11-20T18:05:11.588Z,100315.88
2022-11-20T18:07:41.844Z,100320.59
2022-11-20T18:10:09.751Z,100320.22
2022-11-20T18:12:37.132Z,100333.53
2022-11-20T18:15:04.714Z,100338.38
2022-11-20T18:17:32.136Z,100333.31
2022-11-20T18:20:31.303Z,100337.72
2022-11-20T18:22:47.051Z,100338.44
2022-11-20T18:25:14.571Z,100351.66
2022-11-20T18:27:41.914Z,100354.69
2022-11-20T18:30:10.144Z,100361.03
2022-11-20T18:32:38.338Z,100358.25
2022-11-20T18:35:06.243Z,100347.50
2022-11-20T18:37:33.714Z,100350.25
2022-11-20T18:40:01.070Z,100360.22
2022-11-20T18:42:47.009Z,100331.44
2022-11-20T18:45:15.048Z,100334.59
2022-11-20T18:47:42.555Z,100348.97
2022-11-20T18:50:10.384Z,100343.59
2022-11-20T18:52:42.153Z,100331.13
2022-11-20T18:55:10.352Z,100341.97
2022-11-20T18:57:37.955Z,100343.94
2022-11-20T19:00:09.397Z,100346.91
2022-11-20T19:02:42.984Z,100337.16
2022-11-20T19:05:14.664Z,100338.19
2022-11-20T19:07:43.010Z,100330.78
2022-11-20T19:10:10.847Z,100329.53
2022-11-20T19:12:38.487Z,100320.69
2022-11-20T19:15:06.623Z,100314.72
2022-11-20T19:17:34.309Z,100318.47
2022-11-20T19:20:01.708Z,100322.84
2022-11-20T19:22:29.230Z,100322.59
2022-11-20T19:24:56.596Z,100310.34
2022-11-20T19:27:24.169Z,100300.78
2022-11-20T19:29:51.840Z,100319.25
2022-11-20T19:32:19.191Z,100316.66
2022-11-20T19:34:56.796Z,100316.69
2022-11-20T19:37:25.325Z,100309.34
2022-11-20T19:39:52.711Z,100307.53
2022-11-20T19:42:20.164Z,100305.19
2022-11-20T19:44:47.704Z,100307.94
2022-11-20T19:47:15.147Z,100317.88
2022-11-20T19:49:42.579Z,100313.63
2022-11-20T19:52:10.027Z,100302.13
2022-11-20T19:54:37.381Z,100294.66
2022-11-20T19:57:04.784Z,100288.31
2022-11-20T19:59:32.131Z,100285.78
2022-11-20T20:01:59.573Z,100286.69
2022-11-20T20:04:27.197Z,100275.13
2022-11-20T20:06:54.703Z,100275.72
2022-11-20T20:09:23.923Z,100282.00
2022-11-20T20:11:51.497Z,100290.03
2022-11-20T20:14:19.218Z,100295.47
2022-11-20T20:16:46.775Z,100281.44
2022-11-20T20:19:15.791Z,100283.25
2022-11-20T20:21:44.236Z,100296.34
2022-11-20T20:24:11.981Z,100298.13
2022-11-20T20:26:39.490Z,100301.66
2022-11-20T20:29:06.892Z,100314.94
2022-11-20T20:31:34.711Z,100313.34
2022-11-20T20:34:05.202Z,100312.72
2022-11-20T20:36:37.351Z,100309.50
2022-11-20T20:39:04.707Z,100302.97
2022-11-20T20:41:32.656Z,100301.38
2022-11-20T20:44:20.137Z,100295.94
2022-11-20T20:46:47.543Z,100296.72
2022-11-20T20:49:15.073Z,100296.09
2022-11-20T20:51:42.664Z,100289.25
2022-11-20T20:54:10.105Z,100291.31
2022-11-20T20:56:37.558Z,100291.53
2022-11-20T20:59:05.012Z,100273.78
2022-11-20T21:01:32.622Z,100275.44
2022-11-20T21:04:00.389Z,100276.22
2022-11-20T21:06:27.793Z,100270.25
2022-11-20T21:08:57.377Z,100282.31
2022-11-20T21:11:24.790Z,100290.97
2022-11-20T21:13:52.305Z,100278.38
2022-11-20T21:16:25.050Z,100284.41
2022-11-20T21:18:52.516Z,100286.91
2022-11-20T21:21:38.331Z,100262.38
2022-11-20T21:24:06.171Z,100282.41
2022-11-20T21:26:33.697Z,100275.88
2022-11-20T21:29:20.512Z,100279.66
2022-11-20T21:31:48.026Z,100272.78
2022-11-20T21:34:16.710Z,100286.72
2022-11-20T21:36:44.242Z,100290.25
2022-11-20T21:39:12.977Z,100288.34
2022-11-20T21:41:42.237Z,100292.03
2022-11-20T21:47:00.436Z,100299.06
2022-11-20T21:49:27.875Z,100303.31
2022-11-20T21:51:55.339Z,100308.63
2022-11-20T21:54:23.038Z,100312.13
2022-11-20T21:56:50.837Z,100321.88
2022-11-20T21:59:18.413Z,100317.50
2022-11-20T22:01:45.814Z,100321.16
2022-11-20T22:04:15.023Z,100314.28
2022-11-20T22:06:42.394Z,100312.56
2022-11-20T22:09:11.035Z,100320.44
2022-11-20T22:11:38.382Z,100315.22
2022-11-20T22:14:20.680Z,100315.31
2022-11-20T22:16:52.257Z,100323.22
2022-11-20T22:19:21.146Z,100331.19
2022-11-20T22:21:50.993Z,100330.19
2022-11-20T22:24:21.126Z,100330.16
2022-11-20T22:26:49.260Z,100329.38
2022-11-20T22:29:18.967Z,100334.81
2022-11-20T22:31:47.717Z,100342.66
2022-11-20T22:34:15.253Z,100328.72
2022-11-20T22:36:43.023Z,100340.16
2022-11-20T22:39:10.794Z,100331.50
2022-11-20T22:41:38.229Z,100339.41
2022-11-20T22:44:07.687Z,100342.88
2022-11-20T22:46:36.822Z,100340.13
2022-11-20T22:49:07.037Z,100327.63
2022-11-20T22:51:37.141Z,100338.19
2022-11-20T22:54:05.111Z,100338.84
2022-11-20T22:56:33.560Z,100343.63
2022-11-20T22:59:01.155Z,100349.03
2022-11-20T23:01:34.080Z,100344.47
2022-11-20T23:04:04.100Z,100341.66
2022-11-20T23:06:35.292Z,100349.47
2022-11-20T23:09:05.365Z,100345.00
2022-11-20T23:11:33.698Z,100349.53
2022-11-20T23:14:03.895Z,100339.97
2022-11-20T23:16:32.563Z,100347.94
2022-11-20T23:19:05.985Z,100340.06
2022-11-20T23:21:35.669Z,100323.97
2022-11-20T23:24:03.676Z,100325.56
2022-11-20T23:26:35.535Z,100344.75
2022-11-20T23:29:04.148Z,100335.06
2022-11-20T23:31:33.305Z,100327.84
2022-11-20T23:34:01.108Z,100326.19
2022-11-20T23:36:28.468Z,100304.22
2022-11-20T23:38:56.119Z,100308.59
2022-11-20T23:41:23.520Z,100305.72
2022-11-20T23:43:50.931Z,100287.00
2022-11-20T23:46:18.462Z,100279.00
2022-11-20T23:48:45.935Z,100282.66
2022-11-20T23:51:14.004Z,100291.69
2022-11-20T23:53:41.616Z,100283.78
2022-11-20T23:56:09.134Z,100276.72
2022-11-20T23:58:38.144Z,100273.97
